Portada
METAR-TAF:

METAR-TAF

Aeroports :

Mopti, Mali

latitud: 14-30-46N, longitud: 004-04-46W, altitud: 276 m

Observació

L'informe es va fer fa 1 hora i 31 minuts, a les 03:00 UTC
Vent 8 kt del Est
Temperatura 19°C
Humitat 32%
Pressió 1014 hPa
Visibilitat: 8000 m

METAR: GAMB 290300Z 10008KT 8000 NSC 19/02 Q1014

Hora: 04:31 (04:31 UTC)


TAF: manca

Observacions i pronòstics meteorològics de més de 4000 aeroports (METAR i TAF).

Les estacions disponibles són els punts grocs i vermells al mapa.

Posi el ratolí al punt desitjat per veure el nom de l'estació.

Feu clic per veure les observacions i els pronòstics meteorològics.

Per canviar el mapa: feu clic els botons verds amb una creu de color negre per apropar; al botó verd amb un guió per allunyar la imatge; o en les fletxes verdes per a mapes adjacents.


METAR-TAF: